Time;durP1;ratioP1;P1;durP2;ratioP2;P2;SDS_P1;SDS_P2;PMS_P1;PMS_P2;Temp;Humidity;BMP_temperature;BMP_pressure;BME280_temperature;BME280_humidity;BME280_pressure;Samples;Min_cycle;Max_cycle;Signal;HPM_P1;HPM_P2
2023/07/23 00:01:20;;;;;;;8.17;5.77;;;;;;;12.91;100.00;95938.59;7431165;19;20420;-93
2023/07/23 00:08:05;;;;;;;7.43;6.27;;;;;;;13.53;100.00;96035.75;7434260;19;20433;-94
2023/07/23 00:11:26;;;;;;;6.83;6.23;;;;;;;12.33;100.00;95851.09;7429556;19;20412;-94
2023/07/23 00:14:19;;;;;;;9.20;6.57;;;;;;;12.64;100.00;95908.53;7430834;19;20405;-92
2023/07/23 00:17:58;;;;;;;6.50;5.43;;;;;;;12.16;100.00;95839.03;7431774;19;20399;-93
2023/07/23 00:20:54;;;;;;;9.70;5.83;;;;;;;11.57;100.00;95844.50;7431457;19;20387;-93
2023/07/23 00:23:44;;;;;;;6.57;5.97;;;;;;;11.63;100.00;95882.88;7432516;19;20396;-92
2023/07/23 00:26:44;;;;;;;6.10;4.93;;;;;;;12.00;100.00;95889.41;7428539;19;20393;-93
2023/07/23 00:30:03;;;;;;;7.53;5.43;;;;;;;12.37;100.00;95904.94;7429661;19;20409;-95
2023/07/23 00:33:11;;;;;;;6.70;5.60;;;;;;;12.35;100.00;95884.09;7428887;19;20424;-94
2023/07/23 01:37:38;;;;;;;13.90;6.00;;;;;;;11.81;100.00;95738.38;7425199;19;20466;-94
2023/07/23 01:40:57;;;;;;;11.13;6.50;;;;;;;13.51;100.00;95979.56;7425617;19;20402;-93
2023/07/23 01:43:51;;;;;;;8.20;6.70;;;;;;;12.67;100.00;95846.81;7424626;19;20428;-93
2023/07/23 01:46:42;;;;;;;8.13;5.73;;;;;;;12.11;100.00;95765.09;7429242;19;20375;-93
2023/07/23 01:50:03;;;;;;;7.10;6.40;;;;;;;12.54;100.00;95816.25;7428758;19;20392;-91
2023/07/23 01:53:24;;;;;;;11.07;5.83;;;;;;;13.41;100.00;95976.72;7420088;19;20437;-93
2023/07/23 01:56:28;;;;;;;9.37;6.37;;;;;;;12.71;100.00;95874.94;7426691;19;20416;-93
2023/07/23 01:59:38;;;;;;;7.83;6.37;;;;;;;12.84;100.00;95882.75;7426996;19;20406;-93
2023/07/23 02:02:51;;;;;;;8.70;6.17;;;;;;;13.34;100.00;95974.69;7424744;19;20425;-94
2023/07/23 02:05:55;;;;;;;8.20;6.20;;;;;;;12.20;100.00;95810.72;7422653;19;20396;-94
2023/07/23 02:09:11;;;;;;;8.30;6.80;;;;;;;11.51;100.00;95752.13;7427345;19;20398;-92
2023/07/23 02:12:04;;;;;;;8.23;5.30;;;;;;;12.30;100.00;95828.72;7423337;19;20461;-93
2023/07/23 02:15:18;;;;;;;6.57;6.00;;;;;;;12.50;100.00;95842.72;7429550;19;20428;-94
2023/07/23 02:18:29;;;;;;;7.37;5.87;;;;;;;12.65;100.00;95872.91;7433594;19;20392;-92
2023/07/23 02:52:57;;;;;;;6.10;5.50;;;;;;;12.60;100.00;95828.88;7431236;19;20429;-92
2023/07/23 02:56:08;;;;;;;8.07;5.40;;;;;;;12.80;100.00;95837.56;7434257;19;20397;-93
2023/07/23 02:59:13;;;;;;;6.50;5.17;;;;;;;12.56;100.00;95795.47;7426224;19;20390;-93
2023/07/23 03:02:12;;;;;;;8.30;5.17;;;;;;;12.96;100.00;95832.97;7430010;19;20416;-92
2023/07/23 03:04:46;;;;;;;5.80;5.20;;;;;;;13.22;100.00;95873.97;7430507;19;20381;-92
2023/07/23 03:07:59;;;;;;;5.30;4.80;;;;;;;13.78;100.00;95964.44;7435390;19;20377;-93
2023/07/23 03:10:52;;;;;;;5.53;4.37;;;;;;;13.07;100.00;95837.66;7435612;19;20381;-94
2023/07/23 03:16:51;;;;;;;5.53;4.90;;;;;;;11.65;100.00;95616.63;7434356;19;20358;-96
2023/07/23 03:19:39;;;;;;;5.17;4.77;;;;;;;14.10;100.00;95962.28;7436534;19;20369;-96
2023/07/23 03:22:49;;;;;;;6.80;5.67;;;;;;;12.67;100.00;95760.03;7439572;19;20350;-96
2023/07/23 03:26:10;;;;;;;5.10;4.50;;;;;;;12.79;100.00;95761.00;7434546;19;20432;-95
2023/07/23 03:29:04;;;;;;;4.87;4.40;;;;;;;14.04;100.00;95953.09;7438575;19;20363;-95
2023/07/23 03:31:57;;;;;;;5.77;4.80;;;;;;;11.79;100.00;95632.03;7434143;19;20373;-96
2023/07/23 03:34:51;;;;;;;5.10;4.63;;;;;;;12.24;100.00;95696.81;7435327;19;20434;-95
2023/07/23 03:37:52;;;;;;;5.20;4.67;;;;;;;11.79;100.00;95648.69;7435466;19;20368;-96
2023/07/23 03:40:48;;;;;;;5.47;4.87;;;;;;;13.87;100.00;95942.94;7433649;19;20352;-96
2023/07/23 03:43:59;;;;;;;4.33;3.93;;;;;;;11.73;100.00;95618.28;7438712;19;20376;-94
2023/07/23 03:51:11;;;;;;;4.63;4.23;;;;;;;11.76;100.00;95644.06;7437459;19;20349;-96
2023/07/23 04:05:40;;;;;;;6.20;5.37;;;;;;;11.91;100.00;95644.38;7430997;19;20420;-96
2023/07/23 04:08:57;;;;;;;4.90;4.50;;;;;;;12.27;100.00;95739.25;7431921;19;20403;-96
2023/07/23 04:12:17;;;;;;;5.47;4.87;;;;;;;13.53;100.00;95929.50;7434819;19;20417;-96
2023/07/23 04:15:26;;;;;;;7.17;6.00;;;;;;;13.53;100.00;95929.50;7433499;19;20429;-96
2023/07/23 04:18:18;;;;;;;5.17;4.77;;;;;;;12.28;100.00;95721.47;7433380;19;20382;-96
2023/07/23 04:21:04;;;;;;;5.20;4.80;;;;;;;13.71;100.00;95935.09;7433349;19;20408;-96
2023/07/23 04:23:49;;;;;;;5.03;4.50;;;;;;;12.46;100.00;95735.06;7435134;19;20353;-95
2023/07/23 04:26:47;;;;;;;4.20;3.80;;;;;;;13.80;100.00;95958.78;7434544;19;20374;-96
2023/07/23 04:29:50;;;;;;;9.47;5.07;;;;;;;13.56;100.00;95934.09;7434022;19;20362;-96
2023/07/23 04:32:29;;;;;;;5.30;4.20;;;;;;;12.99;100.00;95874.69;7433289;19;20365;-96
2023/07/23 04:35:21;;;;;;;5.50;5.00;;;;;;;11.10;100.00;95575.47;7433902;19;20454;-96
2023/07/23 04:38:08;;;;;;;5.17;4.67;;;;;;;13.20;100.00;95858.38;7432076;19;20420;-95
2023/07/23 04:41:12;;;;;;;;;;;;;;;;;;;;;
2023/07/23 04:44:12;;;;;;;4.80;4.40;;;;;;;12.15;100.00;95704.97;7429122;19;20398;-96
2023/07/23 05:23:34;;;;;;;9.23;4.87;;;;;;;15.36;100.00;95960.09;7393081;19;20473;-94
2023/07/23 05:26:13;;;;;;;8.97;4.97;;;;;;;13.10;100.00;95637.91;7429294;19;20392;-94
2023/07/23 05:29:19;;;;;;;5.00;4.53;;;;;;;13.38;100.00;95640.19;7432989;19;20394;-94
2023/07/23 05:32:00;;;;;;;5.50;5.10;;;;;;;15.58;100.00;95980.44;7431984;19;20394;-94
2023/07/23 05:35:06;;;;;;;5.37;4.87;;;;;;;14.89;100.00;95815.06;7429287;19;20427;-94
2023/07/23 05:38:03;;;;;;;4.20;3.77;;;;;;;13.86;100.00;95657.81;7427477;19;20402;-94
2023/07/23 05:41:10;;;;;;;6.23;4.27;;;;;;;15.63;100.00;95867.47;7429331;19;20394;-93
2023/07/23 05:43:47;;;;;;;4.67;3.90;;;;;;;15.41;100.00;95801.78;7428593;19;20427;-92
2023/07/23 05:46:22;;;;;;;5.00;3.77;;;;;;;16.70;100.00;95962.25;7430759;19;20398;-94
2023/07/23 07:23:07;;;;;;;4.10;3.70;;;;;;;20.14;78.76;95703.56;7430878;19;20448;-96
2023/07/23 07:25:46;;;;;;;4.30;3.90;;;;;;;19.82;79.71;95699.34;7436734;19;20402;-96
2023/07/23 07:28:33;;;;;;;3.50;3.20;;;;;;;20.87;79.06;95837.31;7437428;19;20433;-95
2023/07/23 07:31:15;;;;;;;5.20;3.17;;;;;;;21.11;78.82;95844.28;7434582;19;20390;-95
2023/07/23 07:34:04;;;;;;;7.93;4.23;;;;;;;20.85;79.53;95810.84;7434050;19;20399;-95
2023/07/23 07:36:44;;;;;;;3.50;3.00;;;;;;;20.38;78.17;95683.66;7435227;19;20397;-96
2023/07/23 09:40:16;;;;;;;4.40;2.90;;;;;;;25.07;58.60;95960.81;7414863;19;20379;-93
2023/07/23 09:43:44;;;;;;;3.50;2.63;;;;;;;25.03;58.25;95954.75;7402133;19;20437;-93
2023/07/23 09:50:43;;;;;;;3.33;3.03;;;;;;;23.67;57.26;95768.41;7406729;19;20398;-94
2023/07/23 09:53:30;;;;;;;3.40;3.10;;;;;;;23.94;57.31;95775.44;7413129;19;20392;-94
2023/07/23 09:56:19;;;;;;;4.20;3.10;;;;;;;25.23;57.36;95955.31;7415600;19;20390;-93
2023/07/23 09:59:21;;;;;;;4.23;3.87;;;;;;;23.69;56.58;95752.53;7406780;19;20422;-94
2023/07/23 10:02:28;;;;;;;3.27;3.03;;;;;;;23.85;57.22;95759.84;7427581;19;20453;-92
2023/07/23 10:05:16;;;;;;;3.17;2.97;;;;;;;23.66;57.56;95712.16;7417287;19;20389;-94
2023/07/23 10:08:28;;;;;;;5.10;4.23;;;;;;;24.61;57.24;95843.09;7413518;19;20410;-94
2023/07/23 10:23:35;;;;;;;;;;;;;;;;;;;;;
2023/07/23 10:26:54;;;;;;;3.37;3.07;;;;;;;24.72;56.17;95932.78;7421147;19;20414;-93
2023/07/23 10:30:13;;;;;;;4.33;2.93;;;;;;;25.47;55.17;95936.06;7415269;19;20395;-93
2023/07/23 10:33:45;;;;;;;3.30;3.00;;;;;;;25.03;55.62;95881.69;7410939;19;20430;-93
2023/07/23 10:37:12;;;;;;;5.40;3.00;;;;;;;25.53;53.78;95916.13;7414637;19;20387;-93
2023/07/23 10:40:27;;;;;;;4.03;2.97;;;;;;;25.69;54.77;95912.56;7428500;19;20402;-94
2023/07/23 10:43:56;;;;;;;4.27;3.87;;;;;;;25.38;54.97;95908.88;7427126;19;20426;-94
2023/07/23 10:47:46;;;;;;;;;;;;;;;;;;;;;
2023/07/23 10:50:54;;;;;;;3.07;2.50;;;;;;;25.92;52.42;95906.03;7422260;19;20406;-93
2023/07/23 10:54:51;;;;;;;3.40;3.10;;;;;;;25.80;51.77;95836.38;7426930;19;20438;-92
2023/07/23 11:45:57;;;;;;;7.40;6.70;;;;;;;25.30;49.50;95781.13;7459756;19;20392;-94
2023/07/23 11:51:59;;;;;;;7.37;6.53;;;;;;;26.00;49.96;95863.19;7462201;19;20420;-94
2023/07/23 11:55:12;;;;;;;;;;;;;;;;;;;;;
2023/07/23 11:58:10;;;;;;;4.23;3.87;;;;;;;25.00;50.71;95777.81;7453279;19;20375;-95
2023/07/23 12:01:35;;;;;;;7.73;3.67;;;;;;;24.48;50.38;95663.91;7454104;19;20388;-94
2023/07/23 12:05:01;;;;;;;6.43;5.83;;;;;;;24.42;51.29;95636.63;7455155;19;20394;-94
2023/07/23 12:10:51;;;;;;;6.20;5.60;;;;;;;25.97;50.37;95839.69;7428133;19;20400;-94
2023/07/23 12:23:53;;;;;;;5.33;4.77;;;;;;;26.28;47.80;95737.50;7425898;19;20428;-93
2023/07/23 12:26:41;;;;;;;4.30;3.70;;;;;;;26.82;48.05;95787.81;7432931;19;20402;-94
2023/07/23 12:29:21;;;;;;;7.33;4.30;;;;;;;26.67;48.15;95835.69;7430017;19;20428;-95
2023/07/23 12:32:15;;;;;;;17.30;13.67;;;;;;;25.69;47.96;95758.19;7432869;19;20408;-95
2023/07/23 12:35:12;;;;;;;5.90;5.30;;;;;;;25.89;45.78;95730.78;7432798;19;20389;-95
2023/07/23 12:38:32;;;;;;;4.47;4.07;;;;;;;25.68;45.59;95625.91;7427546;19;20381;-95
2023/07/23 12:48:40;;;;;;;6.17;5.23;;;;;;;27.05;43.77;95821.88;7423774;19;20433;-95
2023/07/23 12:52:00;;;;;;;8.40;7.30;;;;;;;26.49;44.03;95673.63;7421675;19;20428;-93
2023/07/23 12:54:49;;;;;;;7.30;5.10;;;;;;;27.26;43.88;95709.72;7421626;19;20392;-94
2023/07/23 12:57:40;;;;;;;4.40;4.00;;;;;;;26.64;43.95;95668.41;7420501;19;20405;-94
2023/07/23 13:01:02;;;;;;;4.80;4.13;;;;;;;26.06;43.66;95699.63;7427546;19;20385;-93
2023/07/23 13:03:49;;;;;;;5.03;4.63;;;;;;;25.81;45.11;95727.59;7426627;19;20407;-94
2023/07/23 13:07:12;;;;;;;5.23;4.60;;;;;;;24.98;45.70;95617.09;7429898;19;20381;-94
2023/07/23 13:10:19;;;;;;;4.23;3.83;;;;;;;26.55;44.69;95642.00;7432457;19;20424;-94
2023/07/23 13:13:33;;;;;;;4.80;4.30;;;;;;;26.77;45.19;95820.97;7428872;19;20411;-91
2023/07/23 13:20:21;;;;;;;4.73;4.30;;;;;;;25.79;45.45;95702.91;7424982;19;20415;-93
2023/07/23 13:23:40;;;;;;;;;;;;;;;;;;;;;
2023/07/23 13:26:41;;;;;;;4.93;4.43;;;;;;;25.69;44.92;95724.94;7431583;19;20441;-96
2023/07/23 13:33:30;;;;;;;5.20;3.57;;;;;;;25.11;46.01;95700.94;7430006;19;20375;-94
2023/07/23 13:36:31;;;;;;;5.07;3.90;;;;;;;24.51;45.93;95601.59;7427192;19;20440;-94
2023/07/23 13:39:38;;;;;;;6.40;4.00;;;;;;;25.41;46.15;95721.22;7427316;19;20496;-94
2023/07/23 13:43:28;;;;;;;3.87;3.47;;;;;;;25.37;45.88;95674.56;7427670;19;20512;-94
2023/07/23 13:47:22;;;;;;;6.50;5.90;;;;;;;26.46;44.89;95815.53;7426689;19;20414;-95
2023/07/23 13:58:35;;;;;;;;;;;;;;;;;;;;;
2023/07/23 14:01:55;;;;;;;6.23;5.73;;;;;;;24.92;45.51;95683.75;7421324;19;20413;-94
2023/07/23 14:04:55;;;;;;;8.67;3.50;;;;;;;25.49;46.02;95741.44;7428193;19;20389;-95
2023/07/23 14:08:00;;;;;;;5.43;3.77;;;;;;;25.34;45.26;95586.88;7426067;19;20434;-94
2023/07/23 14:10:58;;;;;;;6.30;5.77;;;;;;;25.60;44.89;95582.81;7425643;19;20392;-94
2023/07/23 14:14:04;;;;;;;7.60;6.07;;;;;;;26.30;44.14;95613.13;7420036;19;20408;-95
2023/07/23 14:17:18;;;;;;;6.70;5.20;;;;;;;27.40;44.98;95795.28;7424333;19;20393;-94
2023/07/23 14:20:30;;;;;;;6.70;5.17;;;;;;;26.33;44.83;95595.22;7419448;19;20404;-94
2023/07/23 14:23:07;;;;;;;7.03;6.33;;;;;;;27.38;44.27;95689.06;7426914;19;20542;-95
2023/07/23 14:25:44;;;;;;;5.37;4.90;;;;;;;27.23;45.69;95789.34;7432189;19;20389;-94
2023/07/23 14:28:46;;;;;;;4.20;3.80;;;;;;;26.54;44.80;95675.75;7430585;19;20393;-96
2023/07/23 14:31:37;;;;;;;4.37;3.97;;;;;;;25.12;45.92;95596.94;7419647;19;20389;-94
2023/07/23 14:34:41;;;;;;;8.70;4.63;;;;;;;25.77;46.17;95659.22;7421846;19;20373;-94
2023/07/23 14:37:47;;;;;;;7.17;6.43;;;;;;;25.07;46.33;95559.63;7427960;19;20398;-95
2023/07/23 14:40:20;;;;;;;13.13;9.97;;;;;;;26.95;45.38;95692.75;7428455;19;20369;-94
2023/07/23 14:43:33;;;;;;;10.50;9.50;;;;;;;28.52;44.66;95769.16;7425826;19;20387;-94
2023/07/23 14:46:13;;;;;;;4.77;4.33;;;;;;;26.23;44.97;95570.78;7418720;19;20381;-94
2023/07/23 14:49:13;;;;;;;7.97;6.47;;;;;;;25.95;46.46;95603.66;7421751;19;20373;-94
2023/07/23 14:51:58;;;;;;;14.07;12.77;;;;;;;26.88;45.14;95663.19;7425513;19;20459;-94
2023/07/23 14:54:36;;;;;;;16.80;15.10;;;;;;;25.75;46.25;95590.44;7422494;19;20460;-95
2023/07/23 14:57:19;;;;;;;17.80;16.00;;;;;;;26.44;47.12;95775.31;7418739;19;20911;-94
2023/07/23 15:00:13;;;;;;;5.97;5.37;;;;;;;26.59;46.58;95685.28;7424075;19;20380;-93
2023/07/23 15:03:52;;;;;;;3.60;3.30;;;;;;;25.01;47.47;95597.31;7422168;19;20385;-95
2023/07/23 15:06:33;;;;;;;2.97;2.33;;;;;;;25.41;47.90;95654.31;7421074;19;20396;-94
2023/07/23 15:09:10;;;;;;;3.60;3.30;;;;;;;25.46;47.40;95577.19;7422742;19;20390;-94
2023/07/23 15:11:47;;;;;;;6.00;4.23;;;;;;;25.14;47.43;95570.94;7420436;19;20421;-94
2023/07/23 15:14:19;;;;;;;3.80;3.40;;;;;;;25.50;47.54;95634.66;7421604;19;20380;-94
2023/07/23 15:16:50;;;;;;;3.77;3.43;;;;;;;25.84;47.49;95688.78;7422778;19;20373;-94
2023/07/23 15:19:35;;;;;;;8.47;3.13;;;;;;;25.48;47.39;95691.19;7425746;19;20407;-94
2023/07/23 16:32:37;;;;;;;5.20;4.40;;;;;;;22.14;57.34;95629.09;7401538;19;20486;-92
2023/07/23 16:35:54;;;;;;;4.23;3.83;;;;;;;23.30;56.58;95797.44;7402760;19;20471;-93
2023/07/23 16:39:19;;;;;;;5.07;4.30;;;;;;;22.01;56.87;95587.81;7403255;19;20379;-93
2023/07/23 16:42:19;;;;;;;4.53;3.60;;;;;;;23.61;56.75;95807.13;7399560;19;20440;-92
2023/07/23 16:45:54;;;;;;;5.50;5.00;;;;;;;21.15;55.75;95459.72;7407487;19;20476;-92
2023/07/23 16:48:32;;;;;;;6.40;5.30;;;;;;;21.34;56.24;95482.41;7403936;19;20388;-92
2023/07/23 18:25:14;;;;;;;7.27;6.57;;;;;;;20.37;53.62;95449.28;7400274;19;20390;-94
2023/07/23 18:29:09;;;;;;;;;;;;;;;;;;;;;
2023/07/23 18:32:51;;;;;;;8.03;7.27;;;;;;;22.52;54.22;95764.13;7398294;19;20414;-93
2023/07/23 18:36:13;;;;;;;8.00;6.90;;;;;;;22.53;53.95;95776.41;7400341;19;20823;-93
2023/07/23 18:39:21;;;;;;;7.53;6.73;;;;;;;20.96;54.04;95550.69;7404310;19;20539;-94
2023/07/23 18:47:02;;;;;;;7.23;4.70;;;;;;;22.33;54.93;95759.53;7404343;19;20464;-94
2023/07/23 18:50:20;;;;;;;6.93;6.17;;;;;;;22.19;55.05;95752.50;7398582;19;20431;-94
2023/07/23 18:53:38;;;;;;;8.33;7.40;;;;;;;22.16;55.22;95766.78;7395573;19;20431;-92
2023/07/23 19:03:16;;;;;;;7.57;6.83;;;;;;;22.12;56.05;95756.09;7397837;19;20467;-91
2023/07/23 19:13:18;;;;;;;;;;;;;;;;;;;;;
2023/07/23 19:16:41;;;;;;;7.03;6.43;;;;;;;21.89;56.93;95758.03;7413936;19;20382;-93
2023/07/23 19:20:15;;;;;;;8.20;6.57;;;;;;;21.85;57.55;95752.75;7404477;19;20394;-92
2023/07/23 19:23:30;;;;;;;9.23;5.53;;;;;;;20.68;57.70;95586.16;7402385;19;20444;-91
2023/07/23 19:27:02;;;;;;;7.70;6.90;;;;;;;21.64;57.52;95739.69;7399324;19;20442;-91
2023/07/23 19:34:55;;;;;;;9.47;8.57;;;;;;;19.77;57.82;95480.59;7399981;19;20404;-91
2023/07/23 19:38:27;;;;;;;;;;;;;;;;;;;;;
2023/07/23 19:48:23;;;;;;;;;;;;;;;;;;;;;
2023/07/23 19:55:22;;;;;;;9.83;8.37;;;;;;;21.06;62.12;95749.84;7394034;19;20463;-93
2023/07/23 19:59:31;;;;;;;;;;;;;;;;;;;;;
2023/07/23 20:52:43;;;;;;;;;;;;;;;;;;;;;
2023/07/23 20:59:14;;;;;;;10.43;8.60;;;;;;;17.61;85.16;95564.53;7414576;19;20355;-94
2023/07/23 21:07:28;;;;;;;9.07;8.17;;;;;;;17.18;84.64;95486.50;7411588;19;20746;-90
2023/07/23 22:05:30;;;;;;;4.73;4.23;;;;;;;17.58;97.31;95581.34;6730607;19;3478462;-93
2023/07/23 22:08:14;;;;;;;6.23;5.63;;;;;;;18.37;98.24;95696.75;7458899;19;20169;-94
2023/07/23 22:11:11;;;;;;;5.90;5.13;;;;;;;18.11;100.00;95706.06;7466860;19;20373;-92
2023/07/23 22:13:47;;;;;;;5.47;4.80;;;;;;;16.81;100.00;95500.38;7465133;19;20415;-94
2023/07/23 22:16:24;;;;;;;8.00;6.17;;;;;;;17.03;100.00;95567.84;7463935;19;20401;-92
2023/07/23 22:19:10;;;;;;;5.77;5.23;;;;;;;18.00;100.00;95703.44;7466196;19;20385;-93
2023/07/23 22:21:54;;;;;;;6.40;4.77;;;;;;;17.47;100.00;95618.06;7461998;19;20378;-94
2023/07/23 22:24:29;;;;;;;8.40;5.53;;;;;;;17.02;100.00;95564.41;7438234;19;20391;-92
2023/07/23 22:27:25;;;;;;;6.70;5.20;;;;;;;17.27;100.00;95603.63;7435787;19;20422;-93
2023/07/23 22:30:03;;;;;;;5.00;4.50;;;;;;;16.60;100.00;95519.09;7436816;19;20392;-93
2023/07/23 22:35:49;;;;;;;6.07;5.23;;;;;;;17.51;100.00;95666.19;7434127;19;20395;-93
2023/07/23 22:38:28;;;;;;;5.30;4.63;;;;;;;15.92;100.00;95453.25;7434071;19;20416;-94
2023/07/23 22:41:11;;;;;;;4.73;4.23;;;;;;;16.58;100.00;95545.41;7434808;19;20434;-93
2023/07/23 22:43:58;;;;;;;5.60;4.73;;;;;;;16.17;100.00;95463.91;7434429;19;20401;-93
2023/07/23 22:46:29;;;;;;;5.57;4.97;;;;;;;16.17;100.00;95450.56;7435782;19;20442;-93
2023/07/23 22:49:14;;;;;;;6.10;5.50;;;;;;;16.32;100.00;95453.97;7435267;19;20391;-93
2023/07/23 22:51:52;;;;;;;6.87;4.53;;;;;;;16.65;100.00;95497.34;7432765;19;20392;-93
2023/07/23 22:54:51;;;;;;;6.40;5.70;;;;;;;17.07;100.00;95564.00;7435876;19;20389;-93
2023/07/23 22:57:22;;;;;;;5.53;4.87;;;;;;;17.41;100.00;95588.31;7433563;19;20434;-93
2023/07/23 23:00:01;;;;;;;6.37;5.30;;;;;;;17.21;100.00;95557.09;7436127;19;20387;-92
2023/07/23 23:02:43;;;;;;;5.90;5.30;;;;;;;16.58;99.30;95460.00;7435414;19;20768;-94
2023/07/23 23:05:15;;;;;;;6.13;5.30;;;;;;;16.66;100.00;95494.28;7431672;19;20461;-93
2023/07/23 23:07:57;;;;;;;6.70;6.00;;;;;;;17.05;100.00;95541.50;7434370;19;20411;-93
2023/07/23 23:10:26;;;;;;;7.00;5.97;;;;;;;17.31;100.00;95583.00;7434062;19;20439;-91
2023/07/23 23:13:05;;;;;;;7.53;4.70;;;;;;;16.91;100.00;95544.97;7431549;19;20391;-93
2023/07/23 23:15:47;;;;;;;5.17;4.67;;;;;;;17.35;100.00;95650.56;7435385;19;20380;-93
2023/07/23 23:21:36;;;;;;;7.40;5.50;;;;;;;16.08;100.00;95540.88;7433536;19;20394;-93
2023/07/23 23:24:11;;;;;;;8.07;6.40;;;;;;;16.42;100.00;95565.22;7435606;19;20394;-93
2023/07/23 23:26:51;;;;;;;6.50;5.90;;;;;;;17.48;100.00;95691.75;7433504;19;20442;-92
2023/07/23 23:29:32;;;;;;;6.53;5.27;;;;;;;15.95;100.00;95486.38;7433384;19;20378;-92
2023/07/23 23:32:16;;;;;;;5.63;5.13;;;;;;;17.12;100.00;95669.72;7434297;19;20394;-92
2023/07/23 23:34:59;;;;;;;7.10;5.73;;;;;;;16.36;100.00;95569.44;7428674;19;20378;-93
2023/07/23 23:37:37;;;;;;;6.87;5.30;;;;;;;16.32;100.00;95562.59;7432139;19;20861;-92
2023/07/23 23:40:19;;;;;;;7.97;5.10;;;;;;;16.69;100.00;95659.03;7434913;19;20422;-92
2023/07/23 23:43:13;;;;;;;5.73;5.20;;;;;;;16.64;100.00;95650.63;7430122;19;20385;-93
2023/07/23 23:45:52;;;;;;;6.13;5.17;;;;;;;15.19;100.00;95402.16;7432220;19;20383;-93
2023/07/23 23:48:26;;;;;;;6.23;5.63;;;;;;;15.73;100.00;95463.53;7429750;19;20441;-92
2023/07/23 23:50:59;;;;;;;6.60;5.57;;;;;;;16.10;100.00;95538.56;7433136;19;20402;-93
2023/07/23 23:53:29;;;;;;;5.07;4.30;;;;;;;15.92;100.00;95525.25;7430383;19;20387;-93
2023/07/23 23:56:00;;;;;;;5.43;4.83;;;;;;;16.18;100.00;95542.00;7432764;19;20379;-93
2023/07/23 23:58:37;;;;;;;7.83;5.57;;;;;;;16.30;100.00;95541.63;7431823;19;20386;-92
